createdAt,value
2022-08-31T00:00:33.024Z,57.43
2022-08-31T00:02:23.251Z,57.37
2022-08-31T00:03:55.589Z,57.46
2022-08-31T00:05:28.309Z,57.18
2022-08-31T00:06:59.883Z,57.35
2022-08-31T00:08:31.548Z,57.28
2022-08-31T00:10:14.132Z,57.34
2022-08-31T00:11:45.757Z,57.16
2022-08-31T00:13:17.996Z,57.22
2022-08-31T00:14:49.808Z,57.46
2022-08-31T00:16:21.517Z,57.24
2022-08-31T00:17:53.356Z,57.26
2022-08-31T00:19:24.952Z,57.15
2022-08-31T00:20:56.786Z,57.06
2022-08-31T00:22:28.611Z,57.15
2022-08-31T00:24:00.136Z,57.38
2022-08-31T00:25:31.833Z,57.14
2022-08-31T00:27:03.518Z,57.29
2022-08-31T00:28:35.434Z,57.28
2022-08-31T00:30:08.175Z,57.36
2022-08-31T00:31:39.843Z,57.35
2022-08-31T00:33:12.219Z,57.47
2022-08-31T00:34:43.908Z,57.42
2022-08-31T00:36:15.505Z,57.59
2022-08-31T00:37:47.020Z,57.70
2022-08-31T00:39:18.812Z,57.46
2022-08-31T00:40:50.934Z,57.58
2022-08-31T00:42:23.487Z,57.64
2022-08-31T00:43:56.564Z,57.75
2022-08-31T00:45:28.922Z,57.87
2022-08-31T00:47:00.572Z,57.79
2022-08-31T00:48:32.072Z,57.85
2022-08-31T00:50:07.498Z,57.72
2022-08-31T00:51:43.971Z,58.08
2022-08-31T00:53:15.528Z,57.98
2022-08-31T00:54:53.546Z,58.06
2022-08-31T00:56:25.078Z,58.07
2022-08-31T00:57:57.262Z,58.19
2022-08-31T00:59:28.966Z,58.17
2022-08-31T01:01:01.257Z,58.02
2022-08-31T01:02:33.058Z,58.19
2022-08-31T01:04:05.086Z,58.30
2022-08-31T01:05:37.271Z,58.29
2022-08-31T01:07:09.174Z,58.35
2022-08-31T01:08:42.171Z,58.20
2022-08-31T01:10:14.081Z,58.21
2022-08-31T01:11:45.794Z,58.33
2022-08-31T01:13:17.574Z,58.31
2022-08-31T01:14:49.252Z,58.46
2022-08-31T01:16:25.283Z,58.34
2022-08-31T01:17:57.484Z,58.24
2022-08-31T01:19:34.259Z,58.07
2022-08-31T01:21:05.836Z,58.22
2022-08-31T01:22:40.767Z,58.17
2022-08-31T01:24:12.351Z,58.01
2022-08-31T01:25:44.169Z,58.14
2022-08-31T01:27:18.182Z,58.23
2022-08-31T01:28:50.445Z,58.40
2022-08-31T01:30:23.017Z,58.86
2022-08-31T01:31:54.985Z,58.38
2022-08-31T01:33:26.765Z,58.43
2022-08-31T01:34:58.475Z,58.47
2022-08-31T01:36:30.542Z,58.54
2022-08-31T01:38:02.275Z,58.39
2022-08-31T01:39:33.846Z,58.48
2022-08-31T01:41:05.481Z,58.53
2022-08-31T01:42:37.179Z,58.65
2022-08-31T01:44:08.876Z,58.68
2022-08-31T01:45:40.374Z,58.65
2022-08-31T01:47:11.963Z,58.53
2022-08-31T01:48:44.005Z,58.57
2022-08-31T01:50:15.658Z,58.60
2022-08-31T01:51:47.321Z,58.59
2022-08-31T01:53:19.265Z,58.63
2022-08-31T01:54:51.022Z,58.30
2022-08-31T01:56:48.861Z,58.42
2022-08-31T01:58:20.490Z,58.78
2022-08-31T01:59:52.494Z,58.59
2022-08-31T02:01:31.289Z,59.14
2022-08-31T02:03:09.647Z,58.75
2022-08-31T02:04:41.418Z,58.77
2022-08-31T02:06:13.524Z,58.81
2022-08-31T02:07:45.238Z,58.84
2022-08-31T02:09:16.849Z,58.85
2022-08-31T02:10:48.955Z,58.86
2022-08-31T02:12:20.621Z,59.07
2022-08-31T02:13:52.230Z,59.14
2022-08-31T02:15:24.008Z,58.96
2022-08-31T02:16:55.629Z,58.85
2022-08-31T02:18:27.299Z,59.08
2022-08-31T02:19:58.822Z,59.10
2022-08-31T02:21:30.547Z,59.13
2022-08-31T02:23:03.550Z,59.13
2022-08-31T02:24:35.288Z,59.20
2022-08-31T02:26:07.038Z,59.22
2022-08-31T02:27:38.622Z,59.30
2022-08-31T02:29:10.194Z,59.35
2022-08-31T02:30:42.057Z,59.32
2022-08-31T02:32:19.727Z,59.50
2022-08-31T02:33:52.069Z,59.40
2022-08-31T02:35:23.753Z,59.46
2022-08-31T02:36:55.688Z,59.41
2022-08-31T02:38:27.608Z,59.15
2022-08-31T02:39:59.194Z,59.50
2022-08-31T02:41:31.371Z,59.55
2022-08-31T02:43:03.130Z,59.51
2022-08-31T02:44:34.728Z,59.74
2022-08-31T02:46:06.532Z,59.71
2022-08-31T02:47:38.115Z,59.51
2022-08-31T02:49:09.777Z,59.50
2022-08-31T02:50:42.010Z,59.64
2022-08-31T02:52:13.733Z,59.56
2022-08-31T02:53:45.674Z,59.66
2022-08-31T02:55:18.695Z,59.70
2022-08-31T02:56:53.879Z,59.64
2022-08-31T02:58:25.486Z,59.88
2022-08-31T02:59:57.435Z,59.92
2022-08-31T03:01:29.477Z,59.71
2022-08-31T03:03:01.274Z,59.67
2022-08-31T03:04:32.867Z,59.84
2022-08-31T03:06:04.909Z,59.88
2022-08-31T03:07:37.119Z,59.94
2022-08-31T03:09:09.092Z,59.94
2022-08-31T03:10:40.939Z,59.61
2022-08-31T03:12:19.679Z,59.70
2022-08-31T03:13:53.285Z,59.50
2022-08-31T03:15:29.089Z,59.27
2022-08-31T03:17:00.670Z,59.52
2022-08-31T03:18:33.086Z,59.39
2022-08-31T03:20:06.387Z,59.59
2022-08-31T03:21:38.000Z,59.57
2022-08-31T03:23:11.860Z,59.77
2022-08-31T03:24:44.560Z,59.77
2022-08-31T03:26:16.499Z,59.90
2022-08-31T03:27:48.176Z,59.97
2022-08-31T03:29:19.767Z,59.98
2022-08-31T03:30:51.361Z,60.09
2022-08-31T03:32:23.126Z,60.18
2022-08-31T03:33:55.453Z,60.10
2022-08-31T03:35:27.173Z,60.03
2022-08-31T03:37:07.956Z,60.08
2022-08-31T03:38:39.500Z,60.11
2022-08-31T03:40:29.232Z,60.12
2022-08-31T03:42:00.800Z,60.16
2022-08-31T03:43:32.412Z,60.07
2022-08-31T03:45:04.901Z,60.15
2022-08-31T03:46:36.814Z,60.38
2022-08-31T03:48:12.233Z,60.16
2022-08-31T03:49:49.565Z,60.38
2022-08-31T03:51:21.391Z,60.45
2022-08-31T03:52:56.921Z,60.40
2022-08-31T03:54:28.601Z,60.42
2022-08-31T03:56:05.768Z,60.21
2022-08-31T03:57:37.550Z,60.42
2022-08-31T03:59:09.118Z,60.53
2022-08-31T04:00:42.386Z,60.31
2022-08-31T04:02:14.257Z,60.46
2022-08-31T04:03:45.877Z,60.26
2022-08-31T04:05:21.534Z,60.35
2022-08-31T04:06:53.088Z,60.30
2022-08-31T04:08:25.418Z,60.58
2022-08-31T04:09:57.053Z,60.38
2022-08-31T04:11:44.402Z,60.53
2022-08-31T04:13:16.685Z,60.42
2022-08-31T04:14:48.280Z,60.38
2022-08-31T04:16:21.206Z,60.35
2022-08-31T04:17:57.081Z,60.27
2022-08-31T04:19:31.319Z,60.28
2022-08-31T04:21:03.398Z,60.22
2022-08-31T04:22:36.036Z,60.01
2022-08-31T04:24:07.670Z,60.11
2022-08-31T04:25:39.434Z,59.99
2022-08-31T04:27:11.204Z,60.10
2022-08-31T04:28:42.884Z,60.26
2022-08-31T04:30:14.729Z,60.47
2022-08-31T04:31:49.744Z,60.57
2022-08-31T04:33:21.450Z,60.80
2022-08-31T04:34:56.574Z,60.64
2022-08-31T04:36:28.623Z,60.75
2022-08-31T04:38:05.390Z,60.64
2022-08-31T04:39:52.259Z,60.88
2022-08-31T04:41:24.456Z,60.84
2022-08-31T04:42:56.297Z,60.76
2022-08-31T04:44:28.845Z,60.71
2022-08-31T04:46:00.573Z,60.59
2022-08-31T04:47:32.283Z,60.70
2022-08-31T04:49:03.994Z,60.91
2022-08-31T04:50:39.313Z,60.79
2022-08-31T04:52:13.645Z,60.80
2022-08-31T04:53:45.495Z,60.65
2022-08-31T04:55:17.312Z,60.58
2022-08-31T04:56:48.821Z,60.66
2022-08-31T04:58:20.701Z,60.52
2022-08-31T04:59:52.312Z,60.37
2022-08-31T05:01:24.736Z,60.47
2022-08-31T05:02:56.502Z,60.13
2022-08-31T05:04:29.426Z,60.23
2022-08-31T05:06:01.142Z,60.20
2022-08-31T05:07:32.805Z,60.17
2022-08-31T05:09:06.175Z,60.16
2022-08-31T05:10:40.507Z,60.28
2022-08-31T05:12:12.072Z,60.30
2022-08-31T05:13:43.719Z,60.24
2022-08-31T05:15:15.435Z,60.52
2022-08-31T05:16:47.028Z,60.58
2022-08-31T05:18:18.740Z,60.58
2022-08-31T05:19:53.491Z,60.53
2022-08-31T05:21:28.309Z,60.65
2022-08-31T05:22:59.979Z,60.58
2022-08-31T05:24:35.912Z,60.62
2022-08-31T05:26:07.751Z,60.59
2022-08-31T05:27:39.874Z,60.33
2022-08-31T05:29:13.329Z,60.24
2022-08-31T05:30:45.218Z,60.33
2022-08-31T05:32:16.879Z,60.36
2022-08-31T05:33:50.811Z,60.46
2022-08-31T05:35:22.376Z,60.42
2022-08-31T05:36:54.672Z,60.45
2022-08-31T05:38:26.444Z,60.48
2022-08-31T05:39:58.129Z,60.46
2022-08-31T05:41:30.016Z,60.48
2022-08-31T05:43:01.813Z,60.79
2022-08-31T05:44:36.432Z,60.79
2022-08-31T05:46:10.464Z,60.63
2022-08-31T05:47:42.704Z,60.43
2022-08-31T05:49:14.421Z,60.22
2022-08-31T05:50:47.846Z,60.14
2022-08-31T05:52:19.374Z,59.95
2022-08-31T05:53:58.222Z,60.02
2022-08-31T05:55:30.316Z,59.97
2022-08-31T05:57:02.682Z,59.82
2022-08-31T05:58:34.352Z,59.92
2022-08-31T06:00:09.872Z,59.83
2022-08-31T06:01:42.208Z,59.85
2022-08-31T06:03:13.857Z,59.77
2022-08-31T06:04:45.631Z,59.73
2022-08-31T06:06:17.313Z,59.90
2022-08-31T06:07:51.871Z,60.09
2022-08-31T06:09:23.462Z,60.49
2022-08-31T06:10:59.471Z,60.38
2022-08-31T06:12:34.405Z,60.34
2022-08-31T06:14:06.139Z,60.38
2022-08-31T06:15:39.527Z,60.37
2022-08-31T06:17:17.630Z,60.21
2022-08-31T06:18:52.228Z,60.16
2022-08-31T06:20:26.653Z,60.05
2022-08-31T06:21:58.482Z,59.80
2022-08-31T06:23:30.390Z,59.63
2022-08-31T06:25:02.284Z,59.47
2022-08-31T06:26:34.652Z,59.36
2022-08-31T06:28:07.479Z,59.20
2022-08-31T06:29:39.057Z,59.12
2022-08-31T06:31:24.091Z,58.65
2022-08-31T06:32:58.626Z,58.61
2022-08-31T06:34:30.712Z,58.48
2022-08-31T06:36:02.492Z,58.60
2022-08-31T06:37:34.454Z,58.25
2022-08-31T06:39:06.132Z,58.36
2022-08-31T07:10:56.217Z,56.82
2022-08-31T07:12:27.893Z,57.04
2022-08-31T07:13:59.620Z,56.47
2022-08-31T07:15:31.291Z,56.68
2022-08-31T07:17:05.964Z,56.90
2022-08-31T07:18:38.195Z,56.87
2022-08-31T07:20:10.041Z,56.55
2022-08-31T07:21:41.637Z,56.00
2022-08-31T07:23:13.313Z,55.89
2022-08-31T07:24:45.264Z,55.82
2022-08-31T07:26:18.755Z,55.63
2022-08-31T07:27:53.411Z,55.21
2022-08-31T07:29:25.717Z,55.07
2022-08-31T07:30:57.380Z,54.81
2022-08-31T07:32:29.146Z,55.10
2022-08-31T07:34:05.602Z,55.25
2022-08-31T07:35:39.930Z,55.09
2022-08-31T07:37:30.248Z,54.85
2022-08-31T07:39:20.636Z,54.72
2022-08-31T07:41:10.704Z,54.60
2022-08-31T07:42:43.925Z,54.19
2022-08-31T07:44:15.727Z,53.97
2022-08-31T07:45:47.834Z,53.73
2022-08-31T07:47:22.830Z,53.77
2022-08-31T07:48:54.546Z,53.45
2022-08-31T07:50:27.520Z,53.45
2022-08-31T07:52:00.216Z,53.10
2022-08-31T07:53:32.629Z,52.91
2022-08-31T07:55:09.588Z,52.87
2022-08-31T07:56:43.402Z,52.89
2022-08-31T07:58:17.503Z,52.68
2022-08-31T07:59:54.660Z,52.42
2022-08-31T08:01:27.082Z,52.01
2022-08-31T08:03:05.229Z,52.03
2022-08-31T08:04:39.352Z,51.74
2022-08-31T08:06:16.318Z,51.93
2022-08-31T08:07:54.671Z,51.74
2022-08-31T08:09:27.166Z,51.79
2022-08-31T08:11:00.265Z,51.63
2022-08-31T08:12:36.501Z,51.06
2022-08-31T08:14:09.164Z,51.08
2022-08-31T08:15:40.792Z,50.77
2022-08-31T08:17:12.818Z,50.75
2022-08-31T08:18:44.679Z,51.05
2022-08-31T08:20:16.210Z,50.92
2022-08-31T08:21:47.945Z,51.33
2022-08-31T08:23:27.817Z,51.55
2022-08-31T08:25:07.278Z,51.41
2022-08-31T08:26:42.123Z,51.96
2022-08-31T08:30:09.764Z,51.43
2022-08-31T08:31:41.426Z,50.94
2022-08-31T08:33:13.459Z,50.51
2022-08-31T08:34:45.114Z,50.67
2022-08-31T08:36:18.592Z,50.68
2022-08-31T08:38:01.408Z,50.07
2022-08-31T08:39:36.398Z,50.10
2022-08-31T08:41:13.291Z,49.78
2022-08-31T08:42:44.990Z,50.39
2022-08-31T08:44:18.162Z,50.17
2022-08-31T08:45:52.036Z,49.55
2022-08-31T08:47:38.430Z,49.21
2022-08-31T08:49:14.599Z,49.18
2022-08-31T08:50:46.451Z,48.74
2022-08-31T08:52:25.483Z,48.48
2022-08-31T08:54:02.420Z,48.58
2022-08-31T08:55:35.257Z,48.70
2022-08-31T08:57:14.244Z,48.48
2022-08-31T08:58:46.382Z,48.23
2022-08-31T09:00:19.881Z,47.89
2022-08-31T09:01:56.808Z,47.88
2022-08-31T09:03:44.483Z,48.23
2022-08-31T09:05:33.166Z,47.99
2022-08-31T09:07:11.983Z,48.28
2022-08-31T09:08:54.941Z,48.42
2022-08-31T09:10:26.642Z,48.08
2022-08-31T09:12:05.292Z,48.22
2022-08-31T09:13:39.769Z,48.05
2022-08-31T09:15:11.843Z,47.71
2022-08-31T09:17:02.387Z,48.01
2022-08-31T09:18:34.695Z,47.70
2022-08-31T09:20:07.062Z,47.52
2022-08-31T09:21:51.805Z,47.62
2022-08-31T09:23:23.753Z,47.03
2022-08-31T09:24:59.534Z,47.14
2022-08-31T09:26:34.202Z,46.66
2022-08-31T09:28:07.578Z,46.97
2022-08-31T09:29:44.205Z,46.76
2022-08-31T09:31:42.363Z,47.43
2022-08-31T09:33:16.888Z,47.29
2022-08-31T09:34:52.342Z,47.32
2022-08-31T09:36:25.468Z,47.07
2022-08-31T09:38:02.133Z,46.86
2022-08-31T09:39:37.137Z,47.13
2022-08-31T09:41:27.622Z,46.45
2022-08-31T09:43:10.557Z,46.29
2022-08-31T09:44:46.734Z,46.30
2022-08-31T09:46:21.144Z,46.09
2022-08-31T09:47:52.979Z,45.99
2022-08-31T09:49:26.050Z,45.78
2022-08-31T09:51:01.193Z,45.65
2022-08-31T09:52:51.850Z,45.36
2022-08-31T09:54:46.791Z,45.38
2022-08-31T09:56:22.688Z,45.31
2022-08-31T09:57:54.444Z,45.30
2022-08-31T09:59:40.302Z,45.31
2022-08-31T10:01:13.587Z,45.11
2022-08-31T10:02:45.231Z,44.88
2022-08-31T10:04:20.152Z,44.69
2022-08-31T10:05:51.962Z,44.56
2022-08-31T10:07:29.320Z,44.57
2022-08-31T10:09:00.981Z,44.34
2022-08-31T10:10:37.287Z,44.14
2022-08-31T10:12:14.141Z,44.24
2022-08-31T10:14:00.490Z,44.09
2022-08-31T10:15:35.789Z,44.18
2022-08-31T10:17:19.266Z,44.26
2022-08-31T10:19:10.076Z,43.73
2022-08-31T10:20:46.554Z,43.57
2022-08-31T10:22:25.946Z,43.45
2022-08-31T10:24:03.470Z,43.62
2022-08-31T10:25:38.829Z,43.65
2022-08-31T10:27:13.787Z,43.72
2022-08-31T10:28:49.143Z,43.28
2022-08-31T10:30:25.286Z,43.64
2022-08-31T10:31:57.516Z,43.32
2022-08-31T10:33:55.100Z,43.14
2022-08-31T10:35:42.600Z,42.73
2022-08-31T10:37:37.211Z,43.07
2022-08-31T10:39:27.459Z,42.96
2022-08-31T10:41:18.283Z,42.28
2022-08-31T10:43:03.352Z,41.89
2022-08-31T10:44:57.089Z,41.87
2022-08-31T10:46:30.528Z,42.39
2022-08-31T10:48:03.378Z,41.84
2022-08-31T10:49:39.266Z,41.72
2022-08-31T10:51:22.345Z,41.77
2022-08-31T10:52:57.367Z,41.17
2022-08-31T10:54:39.424Z,40.93
2022-08-31T10:56:14.488Z,40.73
2022-08-31T10:57:53.195Z,41.31
2022-08-31T10:59:25.083Z,40.93
2022-08-31T11:00:58.664Z,41.42
2022-08-31T11:02:30.245Z,41.50
2022-08-31T11:04:18.919Z,41.04
2022-08-31T11:06:09.392Z,41.15
2022-08-31T11:07:41.562Z,40.47
2022-08-31T11:09:20.442Z,40.42
2022-08-31T11:10:55.381Z,40.81
2022-08-31T11:12:28.734Z,40.59
2022-08-31T11:14:14.926Z,40.50
2022-08-31T11:15:55.438Z,40.16
2022-08-31T11:17:57.802Z,39.41
2022-08-31T11:19:42.839Z,39.24
2022-08-31T11:21:35.611Z,39.22
2022-08-31T11:23:27.353Z,39.56
2022-08-31T11:25:25.690Z,39.02
2022-08-31T11:27:21.286Z,39.15
2022-08-31T11:29:13.655Z,39.37
2022-08-31T11:30:51.257Z,38.66
2022-08-31T12:18:43.391Z,38.68
2022-08-31T12:20:27.348Z,38.50
2022-08-31T12:22:18.580Z,38.66
2022-08-31T12:24:19.135Z,38.60
2022-08-31T12:25:57.238Z,39.16
2022-08-31T12:27:38.101Z,39.47
2022-08-31T12:29:16.600Z,40.17
2022-08-31T12:30:52.442Z,40.38
2022-08-31T12:32:33.553Z,40.25
2022-08-31T13:01:50.133Z,45.44
2022-08-31T13:03:23.691Z,45.68
2022-08-31T13:04:55.929Z,45.64
2022-08-31T13:06:32.136Z,45.92
2022-08-31T13:08:22.656Z,45.83
2022-08-31T13:10:05.450Z,46.13
2022-08-31T13:11:41.076Z,46.21
2022-08-31T13:13:20.651Z,46.18
2022-08-31T13:14:52.834Z,46.43
2022-08-31T13:16:24.919Z,46.78
2022-08-31T13:18:01.889Z,46.53
2022-08-31T13:19:34.292Z,46.56
2022-08-31T13:21:06.462Z,46.92
2022-08-31T13:22:42.932Z,47.04
2022-08-31T13:24:16.059Z,47.08
2022-08-31T13:25:59.189Z,47.49
2022-08-31T13:27:33.288Z,47.41
2022-08-31T13:29:07.921Z,47.66
2022-08-31T13:30:40.652Z,47.86
2022-08-31T13:32:32.571Z,47.92
2022-08-31T13:34:07.647Z,48.05
2022-08-31T13:35:39.723Z,48.40
2022-08-31T13:37:13.519Z,48.56
2022-08-31T13:38:51.696Z,48.65
2022-08-31T13:40:24.914Z,48.51
2022-08-31T13:41:57.092Z,48.66
2022-08-31T13:43:29.550Z,48.91
2022-08-31T13:45:02.302Z,49.23
2022-08-31T13:46:44.162Z,49.31
2022-08-31T13:48:20.295Z,49.51
2022-08-31T13:49:54.487Z,49.53
2022-08-31T13:51:26.394Z,49.72
2022-08-31T13:53:25.336Z,49.63
2022-08-31T13:55:01.342Z,49.79
2022-08-31T13:56:51.320Z,49.96
2022-08-31T13:58:26.941Z,49.96
2022-08-31T14:00:18.886Z,49.58
2022-08-31T14:01:53.565Z,50.09
2022-08-31T14:03:32.391Z,49.96
2022-08-31T14:05:05.595Z,49.94
2022-08-31T14:06:39.529Z,50.07
2022-08-31T14:08:11.580Z,50.23
2022-08-31T14:09:45.053Z,50.24
2022-08-31T14:11:16.880Z,50.06
2022-08-31T14:12:55.038Z,50.49
2022-08-31T14:14:40.053Z,50.06
2022-08-31T14:16:17.047Z,49.89
2022-08-31T14:19:51.083Z,49.96
2022-08-31T14:21:26.509Z,50.05
2022-08-31T14:22:58.739Z,49.86
2022-08-31T14:24:32.709Z,50.02
2022-08-31T14:26:16.009Z,49.82
2022-08-31T14:27:49.515Z,49.83
2022-08-31T14:29:21.140Z,49.88
2022-08-31T14:30:53.998Z,50.02
2022-08-31T14:32:29.225Z,49.91
2022-08-31T14:34:09.887Z,49.70
2022-08-31T14:35:41.659Z,49.90
2022-08-31T14:37:20.037Z,49.62
2022-08-31T14:38:54.744Z,49.76
2022-08-31T14:40:26.715Z,49.57
2022-08-31T14:42:02.883Z,49.83
2022-08-31T14:43:35.114Z,49.56
2022-08-31T14:45:07.281Z,49.79
2022-08-31T14:46:39.577Z,49.99
2022-08-31T14:48:13.774Z,49.71
2022-08-31T14:49:45.611Z,49.66
2022-08-31T14:51:17.546Z,49.71
2022-08-31T14:52:55.718Z,50.10
2022-08-31T14:54:34.883Z,50.09
2022-08-31T14:56:07.788Z,50.20
2022-08-31T14:57:41.982Z,50.47
2022-08-31T14:59:16.228Z,50.21
2022-08-31T15:00:53.281Z,50.21
2022-08-31T15:02:29.354Z,50.25
2022-08-31T15:04:04.274Z,50.48
2022-08-31T15:05:39.332Z,50.63
2022-08-31T15:07:11.156Z,50.38
2022-08-31T15:08:42.778Z,50.58
2022-08-31T15:10:14.463Z,50.68
2022-08-31T15:11:46.227Z,50.96
2022-08-31T15:13:17.847Z,50.91
2022-08-31T15:14:50.088Z,50.95
2022-08-31T15:16:24.290Z,50.75
2022-08-31T15:17:57.362Z,50.97
2022-08-31T15:19:29.105Z,51.00
2022-08-31T15:21:02.443Z,50.86
2022-08-31T15:22:35.261Z,50.80
2022-08-31T15:24:06.915Z,50.97
2022-08-31T15:25:39.632Z,50.89
2022-08-31T15:27:14.576Z,50.89
2022-08-31T15:28:46.220Z,51.11
2022-08-31T15:30:19.811Z,50.82
2022-08-31T15:31:52.970Z,50.70
2022-08-31T15:33:25.614Z,50.90
2022-08-31T15:34:58.292Z,51.12
2022-08-31T15:36:30.261Z,51.33
2022-08-31T15:38:03.496Z,51.07
2022-08-31T15:39:38.899Z,51.25
2022-08-31T15:41:12.317Z,51.31
2022-08-31T15:42:44.177Z,51.77
2022-08-31T15:44:16.798Z,51.76
2022-08-31T15:45:48.470Z,51.74
2022-08-31T15:47:39.108Z,51.60
2022-08-31T15:49:10.719Z,51.43
2022-08-31T15:51:00.697Z,51.47
2022-08-31T15:52:32.443Z,51.62
2022-08-31T15:54:21.183Z,52.05
2022-08-31T15:55:53.833Z,52.22
2022-08-31T15:57:25.480Z,52.45
2022-08-31T15:58:58.632Z,52.40
2022-08-31T16:00:32.848Z,52.95
2022-08-31T16:02:05.046Z,52.41
2022-08-31T16:03:40.829Z,52.81
2022-08-31T16:05:13.433Z,52.74
2022-08-31T16:06:45.234Z,52.48
2022-08-31T16:08:17.058Z,52.23
2022-08-31T16:09:48.723Z,52.44
2022-08-31T16:11:21.131Z,52.21
2022-08-31T16:12:52.913Z,52.48
2022-08-31T16:14:25.039Z,52.13
2022-08-31T16:15:56.679Z,52.58
2022-08-31T16:17:28.443Z,52.15
2022-08-31T16:19:04.505Z,52.31
2022-08-31T16:20:36.393Z,52.11
2022-08-31T16:22:08.489Z,52.33
2022-08-31T16:23:40.259Z,52.13
2022-08-31T16:25:13.281Z,52.03
2022-08-31T16:26:45.385Z,52.36
2022-08-31T16:28:18.148Z,52.31
2022-08-31T16:29:51.072Z,52.79
2022-08-31T16:31:24.800Z,52.96
2022-08-31T16:32:56.441Z,53.11
2022-08-31T16:34:29.179Z,53.20
2022-08-31T16:36:00.974Z,52.94
2022-08-31T16:37:32.986Z,53.04
2022-08-31T16:39:04.785Z,52.72
2022-08-31T16:40:36.729Z,52.86
2022-08-31T16:42:08.956Z,52.64
2022-08-31T16:43:40.866Z,52.73
2022-08-31T16:45:12.655Z,53.01
2022-08-31T16:46:44.837Z,52.75
2022-08-31T16:48:34.833Z,52.77
2022-08-31T16:50:08.876Z,53.29
2022-08-31T16:51:40.508Z,53.35
2022-08-31T16:53:16.467Z,53.48
2022-08-31T16:54:48.673Z,53.65
2022-08-31T16:56:20.741Z,53.72
2022-08-31T16:57:52.393Z,53.98
2022-08-31T16:59:24.653Z,54.16
2022-08-31T17:01:02.184Z,54.21
2022-08-31T17:02:34.224Z,54.04
2022-08-31T17:04:06.787Z,54.18
2022-08-31T17:05:38.388Z,53.93
2022-08-31T17:07:10.871Z,53.84
2022-08-31T17:08:45.688Z,53.99
2022-08-31T17:10:17.381Z,53.98
2022-08-31T17:11:53.224Z,54.04
2022-08-31T17:13:28.527Z,53.94
2022-08-31T17:15:01.082Z,53.93
2022-08-31T17:16:34.865Z,53.99
2022-08-31T17:18:06.724Z,53.97
2022-08-31T17:19:38.948Z,53.96
2022-08-31T17:21:15.156Z,53.95
2022-08-31T17:22:48.861Z,54.02
2022-08-31T17:24:24.703Z,54.19
2022-08-31T17:25:56.765Z,54.10
2022-08-31T17:27:28.888Z,54.28
2022-08-31T17:29:05.006Z,54.10
2022-08-31T17:30:39.633Z,54.38
2022-08-31T17:32:12.263Z,54.38
2022-08-31T17:33:43.864Z,54.31
2022-08-31T17:35:19.298Z,54.47
2022-08-31T17:36:51.475Z,54.54
2022-08-31T17:38:24.395Z,54.59
2022-08-31T17:39:56.318Z,54.54
2022-08-31T17:41:28.516Z,54.65
2022-08-31T17:43:01.326Z,54.82
2022-08-31T17:44:33.058Z,54.76
2022-08-31T17:46:09.020Z,54.64
2022-08-31T17:47:40.800Z,54.64
2022-08-31T17:49:12.866Z,54.88
2022-08-31T17:50:44.727Z,54.81
2022-08-31T17:52:16.824Z,54.77
2022-08-31T17:53:48.870Z,54.79
2022-08-31T17:55:20.491Z,54.88
2022-08-31T17:56:56.894Z,54.99
2022-08-31T17:58:28.645Z,55.08
2022-08-31T18:00:00.474Z,55.26
2022-08-31T18:01:32.177Z,55.38
2022-08-31T18:03:05.396Z,55.35
2022-08-31T18:04:37.148Z,55.41
2022-08-31T18:06:08.828Z,55.38
2022-08-31T18:07:41.017Z,55.49
2022-08-31T18:09:16.611Z,55.53
2022-08-31T18:10:54.575Z,55.58
2022-08-31T18:12:27.560Z,55.90
2022-08-31T18:13:59.431Z,55.83
2022-08-31T18:15:31.455Z,55.90
2022-08-31T18:17:04.015Z,55.95
2022-08-31T18:18:35.763Z,56.17
2022-08-31T18:20:08.500Z,56.23
2022-08-31T18:21:40.286Z,56.10
2022-08-31T18:23:12.567Z,56.11
2022-08-31T18:24:44.497Z,56.09
2022-08-31T18:26:22.451Z,56.36
2022-08-31T18:27:56.385Z,56.55
2022-08-31T18:29:33.304Z,56.50
2022-08-31T18:31:07.790Z,56.59
2022-08-31T18:32:42.566Z,56.78
2022-08-31T18:34:22.839Z,56.73
2022-08-31T18:35:55.313Z,56.76
2022-08-31T18:37:27.033Z,56.73
2022-08-31T18:38:59.805Z,56.72
2022-08-31T18:40:50.141Z,56.73
2022-08-31T18:42:40.576Z,56.75
2022-08-31T18:44:30.625Z,56.66
2022-08-31T18:46:02.705Z,56.62
2022-08-31T18:47:34.362Z,56.60
2022-08-31T18:49:12.442Z,56.61
2022-08-31T18:50:45.975Z,56.65
2022-08-31T18:52:22.962Z,56.76
2022-08-31T18:53:54.920Z,56.75
2022-08-31T18:55:26.885Z,56.61
2022-08-31T18:56:58.828Z,56.68
2022-08-31T18:58:30.512Z,56.90
2022-08-31T19:00:03.114Z,56.74
2022-08-31T19:01:34.886Z,57.08
2022-08-31T19:03:06.802Z,57.00
2022-08-31T19:04:38.757Z,57.22
2022-08-31T19:06:15.688Z,57.10
2022-08-31T19:07:47.584Z,57.11
2022-08-31T19:09:19.256Z,57.20
2022-08-31T19:10:51.429Z,56.97
2022-08-31T19:12:24.674Z,57.17
2022-08-31T19:13:56.435Z,57.29
2022-08-31T19:15:35.403Z,57.35
2022-08-31T19:17:08.421Z,57.59
2022-08-31T19:18:42.328Z,57.37
2022-08-31T19:20:14.318Z,57.26
2022-08-31T19:21:46.057Z,57.12
2022-08-31T19:23:20.210Z,57.08
2022-08-31T19:24:52.199Z,57.36
2022-08-31T19:26:26.766Z,57.32
2022-08-31T19:28:01.594Z,57.22
2022-08-31T19:29:33.617Z,57.38
2022-08-31T19:31:06.531Z,57.39
2022-08-31T19:32:38.759Z,57.40
2022-08-31T19:34:11.246Z,57.50
2022-08-31T19:35:42.966Z,57.68
2022-08-31T19:37:16.117Z,57.63
2022-08-31T19:38:48.279Z,57.58
2022-08-31T19:40:20.005Z,57.58
2022-08-31T19:41:52.886Z,57.41
2022-08-31T19:45:40.867Z,57.42
2022-08-31T19:47:24.437Z,57.34
2022-08-31T19:48:59.829Z,57.29
2022-08-31T19:50:31.513Z,57.36
2022-08-31T19:52:04.243Z,57.20
2022-08-31T19:53:36.096Z,57.52
2022-08-31T19:55:14.243Z,57.60
2022-08-31T19:56:46.350Z,57.53
2022-08-31T19:58:18.563Z,57.53
2022-08-31T19:59:50.280Z,57.43
2022-08-31T20:01:25.352Z,57.40
2022-08-31T20:02:57.183Z,57.52
2022-08-31T20:04:29.873Z,57.62
2022-08-31T20:06:08.042Z,57.59
2022-08-31T20:07:41.592Z,57.47
2022-08-31T20:09:13.685Z,57.54
2022-08-31T20:10:45.723Z,57.64
2022-08-31T20:12:19.033Z,57.59
2022-08-31T20:13:50.951Z,57.75
2022-08-31T20:15:22.973Z,57.55
2022-08-31T20:16:55.138Z,57.83
2022-08-31T20:18:28.451Z,57.84
2022-08-31T20:20:00.959Z,57.70
2022-08-31T20:21:35.006Z,57.92
2022-08-31T20:23:07.034Z,57.96
2022-08-31T20:24:39.351Z,57.92
2022-08-31T20:26:16.213Z,57.81
2022-08-31T20:27:50.701Z,57.82
2022-08-31T20:29:22.921Z,58.01
2022-08-31T20:30:55.794Z,57.95
2022-08-31T20:32:29.249Z,57.92
2022-08-31T20:34:00.961Z,58.17
2022-08-31T20:35:33.274Z,58.11
2022-08-31T20:37:05.238Z,58.03
2022-08-31T20:38:39.510Z,58.01
2022-08-31T20:40:17.523Z,58.27
2022-08-31T20:41:50.421Z,58.39
2022-08-31T20:43:23.567Z,58.47
2022-08-31T20:44:56.097Z,58.19
2022-08-31T20:46:46.298Z,58.31
2022-08-31T20:48:36.418Z,58.20
2022-08-31T20:50:11.580Z,57.86
2022-08-31T20:51:43.449Z,57.79
2022-08-31T20:53:15.717Z,57.82
2022-08-31T20:54:51.546Z,57.98
2022-08-31T20:56:26.487Z,57.77
2022-08-31T20:57:58.378Z,58.08
2022-08-31T20:59:31.493Z,58.10
2022-08-31T21:01:04.517Z,58.14
2022-08-31T21:02:39.853Z,58.37
2022-08-31T21:04:11.928Z,58.44
2022-08-31T21:05:43.696Z,58.33
2022-08-31T21:07:15.627Z,58.39
2022-08-31T21:08:47.433Z,58.38
2022-08-31T21:10:26.100Z,58.37
2022-08-31T21:12:09.333Z,58.27
2022-08-31T21:13:40.959Z,58.26
2022-08-31T21:15:12.767Z,58.51
2022-08-31T21:16:44.645Z,58.50
2022-08-31T21:18:17.859Z,58.45
2022-08-31T21:19:51.534Z,58.65
2022-08-31T21:21:23.525Z,58.62
2022-08-31T21:22:55.274Z,58.50
2022-08-31T21:24:27.140Z,58.40
2022-08-31T21:25:59.620Z,58.41
2022-08-31T21:27:31.277Z,58.43
2022-08-31T21:29:02.944Z,58.38
2022-08-31T21:30:34.617Z,58.58
2022-08-31T21:32:07.581Z,58.39
2022-08-31T21:33:39.647Z,58.54
2022-08-31T21:35:12.543Z,58.71
2022-08-31T21:36:44.384Z,58.99
2022-08-31T21:38:16.038Z,59.00
2022-08-31T21:39:47.696Z,59.03
2022-08-31T21:41:20.358Z,59.21
2022-08-31T21:42:51.984Z,59.15
2022-08-31T21:44:24.639Z,59.18
2022-08-31T21:46:00.251Z,59.05
2022-08-31T21:47:31.961Z,59.12
2022-08-31T21:49:03.877Z,59.15
2022-08-31T21:50:35.422Z,59.21
2022-08-31T21:52:06.968Z,59.25
2022-08-31T21:53:38.575Z,59.26
2022-08-31T21:55:13.498Z,59.08
2022-08-31T21:56:46.333Z,59.28
2022-08-31T21:58:18.537Z,59.14
2022-08-31T21:59:51.223Z,59.09
2022-08-31T22:01:24.075Z,59.45
2022-08-31T22:02:55.770Z,59.34
2022-08-31T22:04:28.077Z,59.66
2022-08-31T22:05:59.735Z,59.55
2022-08-31T22:07:31.809Z,59.49
2022-08-31T22:09:07.940Z,59.18